Time;durP1;ratioP1;P1;durP2;ratioP2;P2;SDS_P1;SDS_P2;PMS_P1;PMS_P2;Temp;Humidity;BMP_temperature;BMP_pressure;BME280_temperature;BME280_humidity;BME280_pressure;Samples;Min_cycle;Max_cycle;Signal;HPM_P1;HPM_P2
2022/01/25 00:09:32;;;;;;;47.53;31.50;;;;;;;;;;2060167;28;20174;-59
2022/01/25 00:10:52;;;;;;;43.67;30.73;;;;;;;;;;2064632;28;20201;-61
2022/01/25 00:31:01;;;;;;;47.80;32.77;;;;;;;;;;2061170;28;20292;-57
2022/01/25 00:32:02;;;;;;;49.97;34.10;;;;;;;;;;2064809;28;20192;-57
2022/01/25 00:33:02;;;;;;;50.67;34.30;;;;;;;;;;2060947;28;20198;-57
2022/01/25 00:34:03;;;;;;;46.73;32.97;;;;;;;;;;2064784;28;20185;-62
2022/01/25 00:35:04;;;;;;;54.07;35.27;;;;;;;;;;2060794;28;20191;-61
2022/01/25 00:36:13;;;;;;;53.07;34.37;;;;;;;;;;2064790;28;20194;-61
2022/01/25 00:37:13;;;;;;;51.17;35.00;;;;;;;;;;2064139;28;20740;-56
2022/01/25 00:38:13;;;;;;;46.00;33.00;;;;;;;;;;2060393;28;20194;-62
2022/01/25 00:39:14;;;;;;;52.30;35.70;;;;;;;;;;2064411;28;20181;-56
2022/01/25 00:40:14;;;;;;;53.23;36.60;;;;;;;;;;2064119;28;20211;-52
2022/01/25 00:41:15;;;;;;;47.77;35.70;;;;;;;;;;2060969;28;20182;-61
2022/01/25 00:42:15;;;;;;;56.73;35.63;;;;;;;;;;2064877;28;20170;-62
2022/01/25 00:43:15;;;;;;;50.10;34.23;;;;;;;;;;2065841;28;20239;-62
2022/01/25 00:44:17;;;;;;;51.60;35.53;;;;;;;;;;2070995;28;20250;-62
2022/01/25 00:45:19;;;;;;;51.93;36.50;;;;;;;;;;2072247;28;20216;-62
2022/01/25 00:46:22;;;;;;;51.17;34.93;;;;;;;;;;2072509;28;20169;-61
2022/01/25 00:47:25;;;;;;;52.67;35.73;;;;;;;;;;2065630;28;20186;-60
2022/01/25 00:48:43;;;;;;;50.57;35.63;;;;;;;;;;2066223;28;20240;-61
2022/01/25 00:49:46;;;;;;;49.90;34.93;;;;;;;;;;2058400;28;20165;-62
2022/01/25 00:50:46;;;;;;;56.17;36.77;;;;;;;;;;2060426;28;20182;-61
2022/01/25 00:53:59;;;;;;;48.73;33.87;;;;;;;;;;2066361;28;20214;-61
2022/01/25 00:55:01;;;;;;;52.20;36.37;;;;;;;;;;2066270;28;20649;-62
2022/01/25 00:56:02;;;;;;;53.40;36.60;;;;;;;;;;2066366;28;20180;-62
2022/01/25 00:57:02;;;;;;;54.27;36.87;;;;;;;;;;2068062;28;20585;-56
2022/01/25 00:58:02;;;;;;;52.33;36.97;;;;;;;;;;2065277;28;20181;-62
2022/01/25 00:59:04;;;;;;;53.07;37.20;;;;;;;;;;2065621;28;20178;-61
2022/01/25 01:00:07;;;;;;;54.03;36.57;;;;;;;;;;2066243;28;20208;-62
2022/01/25 01:01:07;;;;;;;55.60;37.07;;;;;;;;;;2066033;28;20186;-62
2022/01/25 01:02:09;;;;;;;55.70;37.17;;;;;;;;;;2065812;28;20173;-61
2022/01/25 01:03:09;;;;;;;54.83;37.17;;;;;;;;;;2066878;28;20169;-62
2022/01/25 01:04:10;;;;;;;57.80;39.90;;;;;;;;;;2069219;28;20197;-62
2022/01/25 01:05:10;;;;;;;56.67;39.23;;;;;;;;;;2063458;28;21554;-61
2022/01/25 01:06:10;;;;;;;52.03;36.77;;;;;;;;;;2061654;28;20172;-60
2022/01/25 01:07:13;;;;;;;57.13;38.83;;;;;;;;;;2066903;28;20259;-62
2022/01/25 01:08:13;;;;;;;56.03;38.30;;;;;;;;;;2066411;28;20178;-61
2022/01/25 01:09:15;;;;;;;56.80;38.73;;;;;;;;;;2066018;28;20594;-60
2022/01/25 01:10:20;;;;;;;59.10;39.63;;;;;;;;;;2066137;28;20173;-58
2022/01/25 01:11:27;;;;;;;59.07;38.50;;;;;;;;;;2065505;28;20755;-59
2022/01/25 01:15:53;;;;;;;53.80;37.40;;;;;;;;;;2058343;28;20178;-60
2022/01/25 01:36:47;;;;;;;57.50;38.60;;;;;;;;;;2061981;28;20166;-59
2022/01/25 01:39:40;;;;;;;62.67;39.50;;;;;;;;;;2066581;28;20162;-58
2022/01/25 01:42:33;;;;;;;60.60;39.70;;;;;;;;;;2068149;28;20514;-61
2022/01/25 01:43:37;;;;;;;59.97;39.40;;;;;;;;;;2074937;28;20223;-60
2022/01/25 01:44:50;;;;;;;60.40;39.73;;;;;;;;;;2070002;28;20236;-56
2022/01/25 01:47:06;;;;;;;58.50;39.93;;;;;;;;;;2075077;28;20177;-57
2022/01/25 01:48:09;;;;;;;63.23;41.30;;;;;;;;;;2058763;28;20639;-61
2022/01/25 01:49:11;;;;;;;57.83;39.33;;;;;;;;;;2058645;28;20205;-61
2022/01/25 01:50:26;;;;;;;60.23;39.70;;;;;;;;;;2059134;28;20272;-59
2022/01/25 01:51:35;;;;;;;58.03;39.50;;;;;;;;;;2057571;28;20273;-57
2022/01/25 01:52:36;;;;;;;60.60;40.13;;;;;;;;;;2063003;28;20162;-60
2022/01/25 01:53:36;;;;;;;61.50;41.50;;;;;;;;;;2066039;28;20264;-57
2022/01/25 01:54:37;;;;;;;63.13;40.10;;;;;;;;;;2066109;28;20169;-60
2022/01/25 01:55:37;;;;;;;64.03;40.77;;;;;;;;;;2066181;28;20197;-58
2022/01/25 01:56:39;;;;;;;62.53;40.33;;;;;;;;;;2066004;28;20185;-57
2022/01/25 01:57:41;;;;;;;61.13;40.50;;;;;;;;;;2070715;28;20618;-62
2022/01/25 01:58:41;;;;;;;61.23;41.20;;;;;;;;;;2073780;28;20177;-60
2022/01/25 01:59:41;;;;;;;62.40;41.33;;;;;;;;;;2073236;28;20169;-60
2022/01/25 02:00:43;;;;;;;67.37;40.90;;;;;;;;;;2060272;28;20175;-60
2022/01/25 02:01:44;;;;;;;65.70;40.80;;;;;;;;;;2064955;28;20638;-60
2022/01/25 02:02:44;;;;;;;63.57;42.80;;;;;;;;;;2064308;28;20230;-62
2022/01/25 02:03:45;;;;;;;63.57;41.07;;;;;;;;;;2064900;28;20697;-58
2022/01/25 02:04:45;;;;;;;62.33;42.57;;;;;;;;;;2065695;28;20188;-59
2022/01/25 02:05:45;;;;;;;65.43;42.13;;;;;;;;;;2060728;28;20178;-60
2022/01/25 02:06:46;;;;;;;63.80;42.20;;;;;;;;;;2064370;28;20170;-57
2022/01/25 02:07:46;;;;;;;63.67;41.30;;;;;;;;;;2058503;28;20185;-60
2022/01/25 02:08:47;;;;;;;64.57;42.10;;;;;;;;;;2063739;28;20212;-61
2022/01/25 02:09:47;;;;;;;68.97;43.90;;;;;;;;;;2060858;28;20178;-59
2022/01/25 02:10:47;;;;;;;65.43;41.30;;;;;;;;;;2065621;28;20173;-60
2022/01/25 02:11:47;;;;;;;62.00;40.93;;;;;;;;;;2066058;28;20248;-61
2022/01/25 02:12:50;;;;;;;64.57;41.00;;;;;;;;;;2065399;28;20176;-60
2022/01/25 02:13:50;;;;;;;58.70;40.13;;;;;;;;;;2058257;28;20182;-60
2022/01/25 02:14:51;;;;;;;60.07;39.77;;;;;;;;;;2051437;28;20186;-61
2022/01/25 02:15:55;;;;;;;63.60;40.10;;;;;;;;;;2050032;28;20167;-60
2022/01/25 02:17:04;;;;;;;64.33;41.80;;;;;;;;;;2068649;28;20169;-59
2022/01/25 02:23:22;;;;;;;61.53;40.43;;;;;;;;;;2065928;28;20169;-57
2022/01/25 02:24:22;;;;;;;63.53;41.87;;;;;;;;;;2064123;28;20182;-58
2022/01/25 02:25:23;;;;;;;63.40;40.03;;;;;;;;;;2066641;28;20194;-56
2022/01/25 02:26:23;;;;;;;63.07;41.93;;;;;;;;;;2066742;28;20193;-59
2022/01/25 02:27:24;;;;;;;61.00;39.43;;;;;;;;;;2065479;28;20205;-58
2022/01/25 02:28:25;;;;;;;61.60;41.07;;;;;;;;;;2066316;28;20189;-54
2022/01/25 02:29:26;;;;;;;57.77;39.33;;;;;;;;;;2066360;28;20173;-59
2022/01/25 02:30:26;;;;;;;64.20;42.07;;;;;;;;;;2065468;28;20185;-58
2022/01/25 02:31:26;;;;;;;61.93;40.70;;;;;;;;;;2066316;28;20213;-56
2022/01/25 02:32:26;;;;;;;59.50;40.83;;;;;;;;;;2067385;28;20180;-58
2022/01/25 02:33:27;;;;;;;67.77;42.50;;;;;;;;;;2058768;28;20170;-59
2022/01/25 02:34:27;;;;;;;62.17;41.97;;;;;;;;;;2057036;28;20241;-59
2022/01/25 02:35:28;;;;;;;64.60;42.63;;;;;;;;;;2067330;28;20274;-61
2022/01/25 02:36:28;;;;;;;63.70;41.40;;;;;;;;;;2068184;28;20292;-59
2022/01/25 02:37:28;;;;;;;61.07;40.43;;;;;;;;;;2062020;28;20190;-62
2022/01/25 02:38:29;;;;;;;61.87;39.70;;;;;;;;;;2063780;28;20178;-60
2022/01/25 02:39:30;;;;;;;63.53;42.13;;;;;;;;;;2060337;28;20185;-62
2022/01/25 02:40:31;;;;;;;62.63;40.63;;;;;;;;;;2065883;28;20217;-61
2022/01/25 02:41:33;;;;;;;64.47;41.83;;;;;;;;;;2060464;28;20182;-58
2022/01/25 02:42:33;;;;;;;61.07;40.97;;;;;;;;;;2065939;28;20219;-56
2022/01/25 02:43:35;;;;;;;59.83;40.03;;;;;;;;;;2060143;28;20174;-61
2022/01/25 02:44:36;;;;;;;61.13;41.03;;;;;;;;;;2064494;28;20268;-60
2022/01/25 02:45:37;;;;;;;62.37;41.03;;;;;;;;;;2058712;28;20199;-61
2022/01/25 02:48:56;;;;;;;60.27;40.17;;;;;;;;;;2059111;28;20535;-62
2022/01/25 02:49:57;;;;;;;62.37;41.20;;;;;;;;;;2071163;28;20203;-60
2022/01/25 02:50:58;;;;;;;61.00;40.27;;;;;;;;;;2064855;28;20178;-60
2022/01/25 02:52:00;;;;;;;61.77;39.53;;;;;;;;;;2064201;28;20173;-62
2022/01/25 02:53:00;;;;;;;62.60;40.90;;;;;;;;;;2068789;28;20872;-58
2022/01/25 02:54:01;;;;;;;61.03;40.53;;;;;;;;;;2064116;28;20180;-61
2022/01/25 02:55:02;;;;;;;64.20;40.23;;;;;;;;;;2064095;28;20177;-60
2022/01/25 02:56:02;;;;;;;61.17;41.03;;;;;;;;;;2064452;28;20174;-61
2022/01/25 02:57:02;;;;;;;61.70;40.33;;;;;;;;;;2064517;28;20538;-61
2022/01/25 02:58:05;;;;;;;63.10;39.43;;;;;;;;;;2063884;28;20189;-61
2022/01/25 02:59:05;;;;;;;63.07;41.07;;;;;;;;;;2065345;28;20240;-64
2022/01/25 03:00:09;;;;;;;57.33;39.37;;;;;;;;;;2065170;28;20237;-63
2022/01/25 03:01:09;;;;;;;63.37;40.17;;;;;;;;;;2064118;28;20178;-60
2022/01/25 03:02:09;;;;;;;62.60;42.07;;;;;;;;;;2064901;28;20604;-57
2022/01/25 03:03:10;;;;;;;64.63;40.87;;;;;;;;;;2064932;28;20169;-61
2022/01/25 03:04:11;;;;;;;63.13;40.10;;;;;;;;;;2061427;28;20630;-60
2022/01/25 03:05:11;;;;;;;63.27;41.77;;;;;;;;;;2064829;28;20326;-62
2022/01/25 03:06:15;;;;;;;64.20;40.63;;;;;;;;;;2060175;28;20189;-61
2022/01/25 03:07:15;;;;;;;58.40;38.67;;;;;;;;;;2068661;28;20689;-61
2022/01/25 03:08:16;;;;;;;61.43;39.40;;;;;;;;;;2066348;28;20260;-61
2022/01/25 03:09:16;;;;;;;61.00;40.03;;;;;;;;;;2064711;28;21002;-61
2022/01/25 03:10:16;;;;;;;58.20;37.97;;;;;;;;;;2060623;28;20180;-57
2022/01/25 03:11:18;;;;;;;61.30;38.50;;;;;;;;;;2061147;28;20284;-58
2022/01/25 03:12:29;;;;;;;60.50;40.13;;;;;;;;;;2064899;28;20187;-61
2022/01/25 03:13:44;;;;;;;61.23;39.40;;;;;;;;;;2064921;28;20173;-61
2022/01/25 03:15:10;;;;;;;61.20;39.40;;;;;;;;;;2064274;28;20213;-62
2022/01/25 03:16:18;;;;;;;58.07;38.77;;;;;;;;;;2064668;28;20701;-61
2022/01/25 03:17:25;;;;;;;60.63;38.67;;;;;;;;;;2067137;28;20217;-60
2022/01/25 03:18:39;;;;;;;57.57;38.73;;;;;;;;;;2067100;28;20162;-61
2022/01/25 03:19:47;;;;;;;57.90;38.37;;;;;;;;;;2059611;28;20626;-59
2022/01/25 03:20:51;;;;;;;56.43;38.00;;;;;;;;;;2063858;28;20174;-56
2022/01/25 03:21:52;;;;;;;59.73;39.43;;;;;;;;;;2056926;28;20173;-57
2022/01/25 03:23:56;;;;;;;60.07;39.37;;;;;;;;;;2060022;28;20169;-61
2022/01/25 03:24:56;;;;;;;55.63;38.17;;;;;;;;;;2063944;28;20219;-61
2022/01/25 03:25:56;;;;;;;58.53;37.43;;;;;;;;;;2061200;28;20239;-61
2022/01/25 03:26:57;;;;;;;56.67;38.63;;;;;;;;;;2063306;28;20902;-62
2022/01/25 03:27:57;;;;;;;61.43;39.97;;;;;;;;;;2060100;28;20181;-61
2022/01/25 03:28:58;;;;;;;58.47;39.20;;;;;;;;;;2063107;28;20188;-62
2022/01/25 03:29:58;;;;;;;56.63;38.33;;;;;;;;;;2062141;28;20204;-61
2022/01/25 03:30:58;;;;;;;58.63;37.30;;;;;;;;;;2062718;28;20177;-62
2022/01/25 03:31:59;;;;;;;58.63;38.30;;;;;;;;;;2063647;28;20177;-62
2022/01/25 03:32:59;;;;;;;55.67;38.40;;;;;;;;;;2064785;28;20264;-61
2022/01/25 03:33:59;;;;;;;60.90;37.60;;;;;;;;;;2063954;28;20235;-62
2022/01/25 03:34:59;;;;;;;56.43;35.73;;;;;;;;;;2063856;28;20577;-59
2022/01/25 03:36:00;;;;;;;62.37;38.93;;;;;;;;;;2058315;28;20635;-60
2022/01/25 03:37:00;;;;;;;54.57;36.47;;;;;;;;;;2064606;28;20644;-59
2022/01/25 03:38:00;;;;;;;56.67;36.20;;;;;;;;;;2069920;28;20637;-61
2022/01/25 03:39:01;;;;;;;60.47;36.70;;;;;;;;;;2063903;28;20166;-60
2022/01/25 03:40:01;;;;;;;57.10;37.90;;;;;;;;;;2063481;28;20198;-64
2022/01/25 03:41:03;;;;;;;54.60;37.17;;;;;;;;;;2065282;28;20232;-61
2022/01/25 03:42:07;;;;;;;57.83;36.17;;;;;;;;;;2063742;28;20283;-63
2022/01/25 03:43:08;;;;;;;57.70;37.03;;;;;;;;;;2068542;28;20177;-60
2022/01/25 03:44:09;;;;;;;53.37;35.80;;;;;;;;;;2054990;28;20162;-60
2022/01/25 03:45:17;;;;;;;56.07;35.93;;;;;;;;;;2056573;28;20170;-61
2022/01/25 03:46:28;;;;;;;50.57;35.43;;;;;;;;;;2064009;28;20186;-62
2022/01/25 03:47:42;;;;;;;54.47;36.20;;;;;;;;;;2069901;28;20578;-61
2022/01/25 03:50:02;;;;;;;56.00;35.43;;;;;;;;;;2064689;28;20184;-63
2022/01/25 03:51:02;;;;;;;54.47;34.73;;;;;;;;;;2063551;28;20184;-58
2022/01/25 03:52:03;;;;;;;53.10;35.63;;;;;;;;;;2055572;28;20216;-60
2022/01/25 03:53:04;;;;;;;52.10;35.53;;;;;;;;;;2064227;28;20185;-61
2022/01/25 03:54:05;;;;;;;56.07;36.13;;;;;;;;;;2064507;28;20657;-60
2022/01/25 03:55:06;;;;;;;57.30;36.90;;;;;;;;;;2061429;28;20223;-62
2022/01/25 03:56:06;;;;;;;54.93;36.33;;;;;;;;;;2064416;28;20173;-60
2022/01/25 03:57:06;;;;;;;51.57;35.27;;;;;;;;;;2064978;28;20193;-57
2022/01/25 03:58:08;;;;;;;57.83;36.13;;;;;;;;;;2069389;28;20181;-59
2022/01/25 03:59:08;;;;;;;51.03;34.43;;;;;;;;;;2064100;28;20530;-61
2022/01/25 04:00:10;;;;;;;52.57;34.47;;;;;;;;;;2061610;28;20193;-59
2022/01/25 04:01:13;;;;;;;51.87;34.83;;;;;;;;;;2060428;28;20219;-62
2022/01/25 04:02:14;;;;;;;58.30;36.70;;;;;;;;;;2065386;28;20170;-59
2022/01/25 04:03:33;;;;;;;52.77;35.57;;;;;;;;;;2064579;28;20181;-61
2022/01/25 04:04:35;;;;;;;55.10;35.33;;;;;;;;;;2060177;28;20451;-57
2022/01/25 04:05:47;;;;;;;56.93;37.60;;;;;;;;;;2066115;28;20169;-60
2022/01/25 04:06:51;;;;;;;52.97;35.33;;;;;;;;;;2063116;28;20216;-58
2022/01/25 04:07:52;;;;;;;55.50;35.77;;;;;;;;;;2065164;28;20177;-57
2022/01/25 04:08:52;;;;;;;54.40;35.90;;;;;;;;;;2063425;28;20177;-59
2022/01/25 04:09:53;;;;;;;57.17;37.40;;;;;;;;;;2060287;28;20166;-61
2022/01/25 04:10:53;;;;;;;56.40;35.10;;;;;;;;;;2064026;28;20530;-61
2022/01/25 04:11:53;;;;;;;56.60;38.43;;;;;;;;;;2064136;28;20213;-60
2022/01/25 04:12:53;;;;;;;57.93;37.00;;;;;;;;;;2070633;28;20184;-61
2022/01/25 04:13:56;;;;;;;59.50;39.20;;;;;;;;;;2063536;28;20165;-57
2022/01/25 04:14:58;;;;;;;54.93;36.73;;;;;;;;;;2060516;28;20225;-58
2022/01/25 04:16:04;;;;;;;56.27;36.40;;;;;;;;;;2070631;28;20172;-62
2022/01/25 04:17:08;;;;;;;59.30;37.87;;;;;;;;;;2060650;28;20709;-61
2022/01/25 04:20:09;;;;;;;53.73;35.60;;;;;;;;;;2066865;28;20184;-61
2022/01/25 04:20:44;;;;;;;54.67;35.07;;;;;;;;;;2061696;28;20638;-61
2022/01/25 04:25:40;;;;;;;54.13;35.57;;;;;;;;;;2072247;28;20181;-63
2022/01/25 04:26:40;;;;;;;57.93;36.63;;;;;;;;;;2066287;28;20170;-59
2022/01/25 04:27:41;;;;;;;52.90;35.17;;;;;;;;;;2062034;28;20174;-63
2022/01/25 04:28:41;;;;;;;58.13;35.67;;;;;;;;;;2066038;28;20193;-59
2022/01/25 04:29:41;;;;;;;57.60;38.60;;;;;;;;;;2063312;28;20629;-62
2022/01/25 04:30:41;;;;;;;50.97;35.27;;;;;;;;;;2065921;28;20723;-59
2022/01/25 04:31:42;;;;;;;52.57;36.13;;;;;;;;;;2066395;28;20832;-59
2022/01/25 04:34:06;;;;;;;57.93;36.77;;;;;;;;;;2063974;28;20672;-56
2022/01/25 04:35:12;;;;;;;53.73;34.83;;;;;;;;;;2065245;28;20622;-56
2022/01/25 04:36:38;;;;;;;56.37;35.57;;;;;;;;;;2065596;28;20174;-59
2022/01/25 04:49:28;;;;;;;49.13;32.17;;;;;;;;;;2064327;28;20157;-56
2022/01/25 04:50:54;;;;;;;52.57;32.43;;;;;;;;;;2068458;28;20198;-54
2022/01/25 04:53:09;;;;;;;42.13;28.57;;;;;;;;;;2064004;28;20174;-59
2022/01/25 04:54:24;;;;;;;43.00;28.47;;;;;;;;;;2067749;28;20204;-60
2022/01/25 04:55:42;;;;;;;49.87;30.93;;;;;;;;;;2068674;28;20184;-60
2022/01/25 04:56:57;;;;;;;44.77;28.07;;;;;;;;;;2069091;28;20165;-57
2022/01/25 04:58:05;;;;;;;43.10;27.40;;;;;;;;;;2063115;28;20180;-58
2022/01/25 04:59:18;;;;;;;41.70;26.67;;;;;;;;;;2062465;28;20568;-61
2022/01/25 05:00:21;;;;;;;38.43;26.10;;;;;;;;;;2065606;28;20197;-58
2022/01/25 05:01:22;;;;;;;37.33;24.77;;;;;;;;;;2068464;28;20572;-58
2022/01/25 05:03:51;;;;;;;42.07;27.53;;;;;;;;;;2066637;28;20517;-57
2022/01/25 05:04:58;;;;;;;37.23;25.60;;;;;;;;;;2060752;28;20180;-62
2022/01/25 05:06:11;;;;;;;38.23;25.53;;;;;;;;;;2065429;28;20177;-63
2022/01/25 05:09:34;;;;;;;40.53;28.23;;;;;;;;;;2066182;28;20880;-62
2022/01/25 05:10:46;;;;;;;41.77;27.87;;;;;;;;;;2067018;28;20526;-62
2022/01/25 05:11:50;;;;;;;41.27;27.03;;;;;;;;;;2058308;28;20190;-62
2022/01/25 05:13:09;;;;;;;40.93;27.53;;;;;;;;;;2065856;28;20227;-63
2022/01/25 05:14:34;;;;;;;40.07;26.10;;;;;;;;;;2066841;28;20549;-63
2022/01/25 05:16:52;;;;;;;35.77;25.30;;;;;;;;;;2062776;28;20170;-51
2022/01/25 05:18:14;;;;;;;40.23;26.23;;;;;;;;;;2065736;28;20515;-59
2022/01/25 05:22:56;;;;;;;40.50;27.80;;;;;;;;;;2059581;28;20621;-59
2022/01/25 05:23:57;;;;;;;43.90;28.90;;;;;;;;;;2065213;28;20178;-57
2022/01/25 05:24:57;;;;;;;40.73;27.73;;;;;;;;;;2065366;28;20504;-54
2022/01/25 05:25:57;;;;;;;39.43;25.50;;;;;;;;;;2065340;28;20182;-59
2022/01/25 05:26:57;;;;;;;41.60;27.40;;;;;;;;;;2065774;28;20177;-53
2022/01/25 05:27:58;;;;;;;44.17;29.07;;;;;;;;;;2064379;28;20185;-54
2022/01/25 05:28:58;;;;;;;43.23;28.87;;;;;;;;;;2065494;28;20240;-58
2022/01/25 05:29:59;;;;;;;45.27;29.40;;;;;;;;;;2065447;28;20221;-57
2022/01/25 05:30:59;;;;;;;41.23;28.07;;;;;;;;;;2064554;28;20166;-56
2022/01/25 05:31:59;;;;;;;40.87;27.33;;;;;;;;;;2059847;28;20685;-56
2022/01/25 05:32:59;;;;;;;43.77;27.87;;;;;;;;;;2066986;28;20169;-57
2022/01/25 05:33:59;;;;;;;42.60;28.07;;;;;;;;;;2064894;28;20170;-58
2022/01/25 05:35:00;;;;;;;42.57;26.53;;;;;;;;;;2060972;28;20654;-59
2022/01/25 05:36:01;;;;;;;43.40;28.17;;;;;;;;;;2065752;28;20173;-59
2022/01/25 05:37:03;;;;;;;42.47;27.47;;;;;;;;;;2066254;28;20220;-58
2022/01/25 05:38:03;;;;;;;40.23;27.50;;;;;;;;;;2073635;28;20519;-55
2022/01/25 05:39:19;;;;;;;40.23;27.53;;;;;;;;;;2061830;28;20193;-54
2022/01/25 05:40:28;;;;;;;39.73;25.83;;;;;;;;;;2065585;28;20205;-57
2022/01/25 05:41:31;;;;;;;41.40;26.50;;;;;;;;;;2066119;28;20189;-52
2022/01/25 05:45:10;;;;;;;43.37;26.63;;;;;;;;;;2066373;28;20173;-57
2022/01/25 05:46:16;;;;;;;40.30;26.17;;;;;;;;;;2066024;28;20165;-53
2022/01/25 05:47:16;;;;;;;39.60;27.63;;;;;;;;;;2065500;28;20665;-53
2022/01/25 05:48:17;;;;;;;40.00;26.63;;;;;;;;;;2065869;28;20213;-56
2022/01/25 05:49:17;;;;;;;43.03;28.47;;;;;;;;;;2065591;28;20166;-56
2022/01/25 05:50:17;;;;;;;42.13;28.43;;;;;;;;;;2065778;28;20519;-58
2022/01/25 05:51:17;;;;;;;41.30;27.67;;;;;;;;;;2065296;28;20730;-58
2022/01/25 05:52:18;;;;;;;39.83;27.83;;;;;;;;;;2070351;28;20324;-57
2022/01/25 05:53:18;;;;;;;41.87;27.93;;;;;;;;;;2065832;28;20243;-59
2022/01/25 05:54:19;;;;;;;42.10;29.23;;;;;;;;;;2065031;28;20205;-57
2022/01/25 05:55:19;;;;;;;42.87;27.40;;;;;;;;;;2065192;28;20174;-58
2022/01/25 05:56:20;;;;;;;40.77;27.30;;;;;;;;;;2063862;28;20257;-60
2022/01/25 05:57:20;;;;;;;43.33;28.10;;;;;;;;;;2067540;28;20248;-56
2022/01/25 05:58:20;;;;;;;46.83;30.27;;;;;;;;;;2068888;28;20588;-56
2022/01/25 05:59:21;;;;;;;41.77;28.03;;;;;;;;;;2065826;28;20622;-56
2022/01/25 06:00:21;;;;;;;43.97;28.30;;;;;;;;;;2062912;28;20670;-56
2022/01/25 06:01:21;;;;;;;46.87;29.30;;;;;;;;;;2063343;28;20196;-51
2022/01/25 06:02:24;;;;;;;46.37;29.83;;;;;;;;;;2066792;28;20161;-57
2022/01/25 06:03:24;;;;;;;46.03;29.20;;;;;;;;;;2065700;28;20173;-58
2022/01/25 06:04:25;;;;;;;45.20;28.30;;;;;;;;;;2065795;28;20577;-58
2022/01/25 06:05:25;;;;;;;43.57;29.00;;;;;;;;;;2064350;28;20180;-53
2022/01/25 06:06:26;;;;;;;42.70;27.90;;;;;;;;;;2063426;28;20181;-57
2022/01/25 06:07:27;;;;;;;41.60;26.93;;;;;;;;;;2068269;28;20188;-52
2022/01/25 06:08:27;;;;;;;41.47;27.07;;;;;;;;;;2068050;28;20192;-52
2022/01/25 06:09:27;;;;;;;45.90;28.97;;;;;;;;;;2065037;28;20172;-56
2022/01/25 06:10:27;;;;;;;46.87;29.40;;;;;;;;;;2063437;28;20189;-56
2022/01/25 06:11:27;;;;;;;45.60;29.30;;;;;;;;;;2063995;28;20181;-54
2022/01/25 06:12:28;;;;;;;47.50;30.13;;;;;;;;;;2067559;28;20228;-56
2022/01/25 06:13:28;;;;;;;43.97;28.70;;;;;;;;;;2067056;28;20580;-56
2022/01/25 06:14:28;;;;;;;47.50;30.33;;;;;;;;;;2065009;28;20256;-56
2022/01/25 06:15:28;;;;;;;45.43;29.20;;;;;;;;;;2065122;28;20296;-57
2022/01/25 06:16:29;;;;;;;44.60;29.53;;;;;;;;;;2065041;28;20195;-50
2022/01/25 06:17:29;;;;;;;47.70;30.27;;;;;;;;;;2064502;28;20190;-55
2022/01/25 06:18:30;;;;;;;47.30;30.87;;;;;;;;;;2064674;28;20173;-52
2022/01/25 06:19:30;;;;;;;41.77;28.03;;;;;;;;;;2062883;28;20177;-53
2022/01/25 06:20:30;;;;;;;45.67;28.93;;;;;;;;;;2062249;28;20791;-55
2022/01/25 06:21:31;;;;;;;43.53;28.80;;;;;;;;;;2062368;28;20185;-59
2022/01/25 06:22:31;;;;;;;48.47;29.47;;;;;;;;;;2064654;28;20178;-53
2022/01/25 06:23:31;;;;;;;43.73;28.10;;;;;;;;;;2064180;28;20162;-57
2022/01/25 06:24:31;;;;;;;44.83;28.97;;;;;;;;;;2065370;28;20177;-57
2022/01/25 06:25:34;;;;;;;44.43;28.53;;;;;;;;;;2064657;28;20284;-57
2022/01/25 06:26:34;;;;;;;38.80;26.50;;;;;;;;;;2064821;28;20166;-58
2022/01/25 06:27:35;;;;;;;42.53;29.07;;;;;;;;;;2064328;28;20275;-51
2022/01/25 06:28:35;;;;;;;41.97;28.00;;;;;;;;;;2064282;28;20669;-60
2022/01/25 06:29:35;;;;;;;40.43;27.17;;;;;;;;;;2064767;28;20173;-60
2022/01/25 06:30:35;;;;;;;37.10;25.87;;;;;;;;;;2064446;28;20169;-62
2022/01/25 06:31:36;;;;;;;38.33;24.97;;;;;;;;;;2064977;28;20203;-59
2022/01/25 06:32:36;;;;;;;37.17;25.40;;;;;;;;;;2063817;28;20189;-60
2022/01/25 06:33:42;;;;;;;41.97;26.77;;;;;;;;;;2064244;28;20203;-57
2022/01/25 06:34:44;;;;;;;39.27;26.17;;;;;;;;;;2065240;28;20219;-60
2022/01/25 06:35:46;;;;;;;39.63;25.63;;;;;;;;;;2065056;28;20190;-60
2022/01/25 06:36:47;;;;;;;41.30;27.00;;;;;;;;;;2062468;28;20169;-60
2022/01/25 06:37:47;;;;;;;38.13;25.57;;;;;;;;;;2064053;28;20204;-59
2022/01/25 06:38:47;;;;;;;41.70;26.43;;;;;;;;;;2064719;28;20184;-58
2022/01/25 06:39:49;;;;;;;35.80;23.90;;;;;;;;;;2065580;28;20181;-55
2022/01/25 06:40:49;;;;;;;32.27;23.17;;;;;;;;;;2063788;28;20177;-59
2022/01/25 06:41:50;;;;;;;38.07;25.07;;;;;;;;;;2064351;28;20174;-55
2022/01/25 06:42:50;;;;;;;34.97;24.87;;;;;;;;;;2064122;28;20260;-57
2022/01/25 06:43:50;;;;;;;34.50;22.97;;;;;;;;;;2065336;28;20626;-59
2022/01/25 06:44:55;;;;;;;37.40;24.03;;;;;;;;;;2058924;28;20255;-58
2022/01/25 06:46:04;;;;;;;34.57;22.77;;;;;;;;;;2064389;28;20223;-55
2022/01/25 06:47:05;;;;;;;36.13;24.10;;;;;;;;;;2063931;28;20248;-56
2022/01/25 06:48:05;;;;;;;37.00;24.40;;;;;;;;;;2066602;28;20244;-65
2022/01/25 06:49:05;;;;;;;39.57;25.70;;;;;;;;;;2059501;28;20178;-62
2022/01/25 06:50:06;;;;;;;38.50;25.17;;;;;;;;;;2062462;28;20174;-59
2022/01/25 06:51:06;;;;;;;34.73;23.57;;;;;;;;;;2059739;28;20533;-59
2022/01/25 06:52:07;;;;;;;36.73;24.73;;;;;;;;;;2065164;28;20185;-58
2022/01/25 06:53:07;;;;;;;35.07;23.30;;;;;;;;;;2064073;28;20509;-63
2022/01/25 06:54:07;;;;;;;32.50;23.43;;;;;;;;;;2069689;28;20203;-62
2022/01/25 06:55:09;;;;;;;34.97;23.67;;;;;;;;;;2072344;28;20251;-62
2022/01/25 06:56:09;;;;;;;34.53;23.03;;;;;;;;;;2063653;28;20172;-58
2022/01/25 06:57:10;;;;;;;33.47;23.03;;;;;;;;;;2062536;28;20243;-60
2022/01/25 06:58:10;;;;;;;37.57;23.77;;;;;;;;;;2064919;28;20213;-60
2022/01/25 06:59:10;;;;;;;37.07;23.70;;;;;;;;;;2067205;28;20397;-61
2022/01/25 07:00:12;;;;;;;39.23;25.13;;;;;;;;;;2067324;28;20297;-61
2022/01/25 07:01:12;;;;;;;37.67;24.40;;;;;;;;;;2067491;28;20176;-64
2022/01/25 07:02:13;;;;;;;34.97;23.90;;;;;;;;;;2064335;28;20169;-58
2022/01/25 07:03:13;;;;;;;39.43;25.13;;;;;;;;;;2063312;28;20169;-61
2022/01/25 07:04:13;;;;;;;37.07;25.00;;;;;;;;;;2061737;28;20185;-61
2022/01/25 07:05:14;;;;;;;36.40;24.73;;;;;;;;;;2064088;28;20289;-60
2022/01/25 07:06:14;;;;;;;41.30;25.30;;;;;;;;;;2063612;28;20166;-59
2022/01/25 07:07:14;;;;;;;37.93;24.67;;;;;;;;;;2064006;28;20271;-60
2022/01/25 07:08:15;;;;;;;36.80;24.03;;;;;;;;;;2062942;28;20805;-60
2022/01/25 07:09:15;;;;;;;36.07;23.50;;;;;;;;;;2064526;28;20182;-51
2022/01/25 07:10:17;;;;;;;38.30;24.87;;;;;;;;;;2063928;28;20227;-60
2022/01/25 07:11:18;;;;;;;38.87;24.63;;;;;;;;;;2064224;28;20177;-60
2022/01/25 07:12:18;;;;;;;38.23;24.77;;;;;;;;;;2063619;28;20169;-62
2022/01/25 07:13:18;;;;;;;35.63;24.43;;;;;;;;;;2064019;28;20201;-61
2022/01/25 07:14:18;;;;;;;36.87;24.47;;;;;;;;;;2058083;28;20178;-62
2022/01/25 07:15:19;;;;;;;36.53;24.60;;;;;;;;;;2063805;28;20165;-60
2022/01/25 07:16:19;;;;;;;37.00;24.20;;;;;;;;;;2062240;28;20185;-62
2022/01/25 07:17:19;;;;;;;37.50;24.23;;;;;;;;;;2062671;28;20224;-61
2022/01/25 07:18:20;;;;;;;39.50;25.70;;;;;;;;;;2060621;28;20182;-61
2022/01/25 07:19:20;;;;;;;40.60;26.17;;;;;;;;;;2061816;28;20188;-60
2022/01/25 07:20:20;;;;;;;40.87;25.53;;;;;;;;;;2063090;28;20201;-62
2022/01/25 07:21:20;;;;;;;38.80;25.83;;;;;;;;;;2064027;28;20168;-61
2022/01/25 07:22:21;;;;;;;39.13;26.67;;;;;;;;;;2063994;28;20696;-62
2022/01/25 07:23:21;;;;;;;38.40;24.60;;;;;;;;;;2066791;28;20168;-61
2022/01/25 07:24:21;;;;;;;43.70;25.83;;;;;;;;;;2068190;28;20165;-60
2022/01/25 07:25:22;;;;;;;42.37;25.27;;;;;;;;;;2068179;28;20169;-60
2022/01/25 07:26:22;;;;;;;40.67;25.70;;;;;;;;;;2067390;28;20164;-59
2022/01/25 07:27:22;;;;;;;41.37;26.70;;;;;;;;;;2067398;28;20196;-57
2022/01/25 07:28:23;;;;;;;40.27;26.40;;;;;;;;;;2067717;28;20167;-60
2022/01/25 07:29:23;;;;;;;43.33;25.70;;;;;;;;;;2068650;28;20197;-61
2022/01/25 07:30:23;;;;;;;40.03;25.60;;;;;;;;;;2068352;28;20573;-59
2022/01/25 07:31:23;;;;;;;39.10;25.20;;;;;;;;;;2068617;28;20168;-59
2022/01/25 07:32:24;;;;;;;38.40;24.90;;;;;;;;;;2068299;28;20639;-59
2022/01/25 07:33:24;;;;;;;34.37;22.47;;;;;;;;;;2067441;28;20190;-61
2022/01/25 07:34:24;;;;;;;39.70;25.47;;;;;;;;;;2067206;28;20173;-60
2022/01/25 07:35:25;;;;;;;38.67;24.47;;;;;;;;;;2066581;28;20176;-58
2022/01/25 07:36:25;;;;;;;37.33;24.63;;;;;;;;;;2067817;28;20523;-55
2022/01/25 07:37:25;;;;;;;37.43;24.93;;;;;;;;;;2066645;28;20771;-55
2022/01/25 07:38:26;;;;;;;38.07;24.97;;;;;;;;;;2068317;28;20177;-59
2022/01/25 07:39:26;;;;;;;36.77;24.23;;;;;;;;;;2068604;28;20172;-62
2022/01/25 07:40:27;;;;;;;37.33;24.20;;;;;;;;;;2068468;28;20240;-62
2022/01/25 07:41:27;;;;;;;39.60;25.23;;;;;;;;;;2068859;28;20218;-59